Jackson, MI

5:15 AM EDT on August 03, 2015 (GMT -0400)
Jackson County-Reynolds | | Change Station
CLOSE
Current Station
Airport
Location: Jackson,
Elevation: 1001 ft
Nearby Weather Stations

Elev 1001 ft 42.26 °N, 84.46 °W | Updated 19 minutes ago

Overcast
Overcast
64 °F
Feels Like 64 °F
N
5
Wind Variable Wind from SW

Today
High -- | Low -- °F
--% Chance of Precip.
Yesterday
High -- | Low -- °F
Precip. -- in
6:32 AM 8:54 PM
Waning Gibbous, 88% visible
Pressure 29.74 in
Visibility 10.0 miles
Clouds Overcast 1300 ft
Dew Point 62 °F
Humidity 93%
Rainfall 0.18 in
Snow Depth Not available.
UV 0 out of 12
Pollen 8.30 out of 12
Air Quality Not available.
Flu Activity Not available.
METAR KJXN 030856Z 23004KT 10SM OVC013 18/17 A2976 RMK AO2 SLP070 T01780167 53011

More Conditions Fewer Conditions

Pressure 29.74 in
Visibility 10.0 miles
Clouds Overcast 1300 ft
Dew Point 62 °F
Humidity 93%
Rainfall 0.18 in
Snow Depth Not available.
UV 0 out of 12
Pollen 8.30 out of 12
Air Quality Not available.
Flu Activity Not available.
METAR KJXN 030856Z 23004KT 10SM OVC013 18/17 A2976 RMK AO2 SLP070 T01780167 53011

More Conditions Fewer Conditions

10-Day Weather Forecast

×

Almanac

Astronomy

Aug. 03, 2015 Rise Set
Actual Time
Civil Twilight
Nautical Twilight
Astronomical Twilight
Moon
Length of Visible Light
Length of Day
Tomorrow will be .
, % of the Moon is Illuminated

Today's Extremes

State Highs State Lows

Community

WunderPhotos

Upload Photos

1,843,592 photos uploaded!

WunderBlogs® & News

Nearby

Air Quality

  Air Quality AQ Index Pollutant
Not available.

Snow Depth

Station Depth Elevation

Earthquake Activity

City Distance Mag. Time & Date
Minimum magnitude displayed is 2.5.

Coastal Water Temperatures

Place Temperature

Stations

Nearby Weather Stations

Station Location Temp. Windchill Dew Point Humidity Wind Precip. Elev Updated Type